createdAt,value
2023-02-24T00:00:26.159Z,8.10
2023-02-24T00:03:27.974Z,8.00
2023-02-24T00:06:37.031Z,7.90
2023-02-24T00:09:39.589Z,7.90
2023-02-24T00:12:41.342Z,7.80
2023-02-24T00:15:43.131Z,7.70
2023-02-24T00:18:45.782Z,7.70
2023-02-24T00:21:48.043Z,7.70
2023-02-24T00:24:49.891Z,7.70
2023-02-24T00:27:55.755Z,7.60
2023-02-24T00:31:02.202Z,7.50
2023-02-24T00:34:04.056Z,7.70
2023-02-24T00:37:09.300Z,7.60
2023-02-24T00:40:12.176Z,7.50
2023-02-24T00:43:14.135Z,7.50
2023-02-24T00:46:18.695Z,7.50
2023-02-24T00:49:20.809Z,7.40
2023-02-24T00:52:22.637Z,7.40
2023-02-24T00:55:24.478Z,7.50
2023-02-24T00:58:30.033Z,7.50
2023-02-24T01:01:33.713Z,7.50
2023-02-24T01:04:37.730Z,7.60
2023-02-24T01:07:39.615Z,7.60
2023-02-24T01:11:01.307Z,7.60
2023-02-24T01:14:09.011Z,7.50
2023-02-24T01:17:10.769Z,7.50
2023-02-24T01:20:16.718Z,7.50
2023-02-24T01:23:18.527Z,7.40
2023-02-24T01:26:20.623Z,7.40
2023-02-24T01:29:23.026Z,7.40
2023-02-24T01:32:27.588Z,7.30
2023-02-24T01:35:31.622Z,7.30
2023-02-24T01:38:36.945Z,7.40
2023-02-24T01:41:42.452Z,7.30
2023-02-24T01:44:44.146Z,7.40
2023-02-24T01:47:47.501Z,7.30
2023-02-24T01:50:50.402Z,7.30
2023-02-24T01:53:52.711Z,7.30
2023-02-24T01:56:57.543Z,7.30
2023-02-24T02:00:12.455Z,7.30
2023-02-24T02:03:24.216Z,7.30
2023-02-24T02:06:27.470Z,7.20
2023-02-24T02:09:30.001Z,7.20
2023-02-24T02:12:37.003Z,7.20
2023-02-24T02:15:56.834Z,7.20
2023-02-24T02:19:07.647Z,7.20
2023-02-24T02:23:07.675Z,7.20
2023-02-24T02:26:28.231Z,7.10
2023-02-24T02:30:01.963Z,7.10
2023-02-24T02:33:21.820Z,7.20
2023-02-24T02:36:29.905Z,7.10
2023-02-24T02:39:37.813Z,7.10
2023-02-24T02:42:46.842Z,7.10
2023-02-24T02:46:03.869Z,7.10
2023-02-24T02:49:21.898Z,7.20
2023-02-24T02:52:38.788Z,7.20
2023-02-24T02:55:50.272Z,7.10
2023-02-24T02:58:54.566Z,7.10
2023-02-24T03:02:11.470Z,7.10
2023-02-24T03:05:20.301Z,7.20
2023-02-24T03:08:26.704Z,7.20
2023-02-24T03:11:32.547Z,7.10
2023-02-24T03:14:39.773Z,7.00
2023-02-24T03:17:45.380Z,7.00
2023-02-24T03:20:52.556Z,7.00
2023-02-24T03:23:54.676Z,6.90
2023-02-24T03:27:24.605Z,6.80
2023-02-24T03:30:32.947Z,7.00
2023-02-24T03:33:41.225Z,6.90
2023-02-24T03:36:43.554Z,6.90
2023-02-24T03:39:47.035Z,6.90
2023-02-24T03:42:52.904Z,6.90
2023-02-24T03:45:55.842Z,6.70
2023-02-24T03:49:05.623Z,6.80
2023-02-24T03:52:29.515Z,6.70
2023-02-24T03:55:38.953Z,6.70
2023-02-24T03:59:07.210Z,6.70
2023-02-24T04:02:20.305Z,6.70
2023-02-24T04:05:24.834Z,6.70
2023-02-24T04:08:30.263Z,6.70
2023-02-24T04:11:58.100Z,6.70
2023-02-24T04:15:04.903Z,6.70
2023-02-24T04:18:13.454Z,6.80
2023-02-24T04:21:17.297Z,6.80
2023-02-24T04:24:23.781Z,6.70
2023-02-24T04:27:28.290Z,6.70
2023-02-24T04:30:35.323Z,6.60
2023-02-24T04:33:42.015Z,6.70
2023-02-24T04:36:49.466Z,6.70
2023-02-24T04:39:51.219Z,6.70
2023-02-24T04:42:54.491Z,6.60
2023-02-24T04:45:56.296Z,6.60
2023-02-24T04:48:58.023Z,6.60
2023-02-24T04:51:59.875Z,6.50
2023-02-24T04:55:09.926Z,6.40
2023-02-24T04:58:13.896Z,6.40
2023-02-24T05:01:15.658Z,6.40
2023-02-24T05:04:18.336Z,6.40
2023-02-24T05:07:20.384Z,6.30
2023-02-24T05:10:27.999Z,6.30
2023-02-24T05:13:31.845Z,6.20
2023-02-24T05:16:34.154Z,6.10
2023-02-24T05:19:54.441Z,6.10
2023-02-24T05:22:57.168Z,6.00
2023-02-24T05:25:59.541Z,6.10
2023-02-24T05:29:02.254Z,6.10
2023-02-24T05:32:05.711Z,6.10
2023-02-24T05:35:08.699Z,6.10
2023-02-24T05:38:10.564Z,6.10
2023-02-24T05:41:18.646Z,6.00
2023-02-24T05:44:22.682Z,6.00
2023-02-24T05:47:25.429Z,5.90
2023-02-24T05:50:27.338Z,5.90
2023-02-24T05:53:29.323Z,5.80
2023-02-24T05:56:34.041Z,5.90
2023-02-24T05:59:36.282Z,5.90
2023-02-24T06:02:38.499Z,5.90
2023-02-24T06:05:42.642Z,5.70
2023-02-24T06:08:50.907Z,5.80
2023-02-24T06:11:52.758Z,5.90
2023-02-24T06:14:54.930Z,5.90
2023-02-24T06:17:56.901Z,5.90
2023-02-24T06:21:04.386Z,5.90
2023-02-24T06:24:07.808Z,5.90
2023-02-24T06:27:10.485Z,5.80
2023-02-24T06:30:13.007Z,5.70
2023-02-24T06:33:14.762Z,5.50
2023-02-24T06:36:16.698Z,5.60
2023-02-24T06:39:19.128Z,5.50
2023-02-24T06:42:20.880Z,5.50
2023-02-24T06:45:24.349Z,5.60
2023-02-24T06:48:28.042Z,5.60
2023-02-24T06:51:30.382Z,5.60
2023-02-24T06:54:35.888Z,5.60
2023-02-24T06:57:37.840Z,5.60
2023-02-24T07:00:39.939Z,5.60
2023-02-24T07:04:02.787Z,5.60
2023-02-24T07:07:04.700Z,5.60
2023-02-24T07:10:09.262Z,5.60
2023-02-24T07:13:13.558Z,5.60
2023-02-24T07:16:20.397Z,5.70
2023-02-24T07:19:29.258Z,5.60
2023-02-24T07:22:31.909Z,5.70
2023-02-24T07:25:34.063Z,5.60
2023-02-24T07:28:40.009Z,5.60
2023-02-24T07:31:43.055Z,5.60
2023-02-24T07:34:45.336Z,5.60
2023-02-24T07:37:50.164Z,5.70
2023-02-24T07:40:57.228Z,5.70
2023-02-24T07:43:59.780Z,5.70
2023-02-24T07:47:07.936Z,5.70
2023-02-24T07:50:14.410Z,5.70
2023-02-24T07:53:16.525Z,5.70
2023-02-24T07:56:26.892Z,5.80
2023-02-24T07:59:32.378Z,5.80
2023-02-24T08:02:34.793Z,5.80
2023-02-24T08:05:36.581Z,5.70
2023-02-24T08:08:57.959Z,5.80
2023-02-24T08:12:01.171Z,5.80
2023-02-24T08:15:17.065Z,5.90
2023-02-24T08:18:20.126Z,5.90
2023-02-24T08:21:22.192Z,5.90
2023-02-24T08:24:26.278Z,5.90
2023-02-24T08:27:32.165Z,6.00
2023-02-24T08:30:38.873Z,6.00
2023-02-24T08:33:40.896Z,6.00
2023-02-24T08:36:48.436Z,5.90
2023-02-24T08:39:54.099Z,6.00
2023-02-24T08:43:00.526Z,6.10
2023-02-24T08:46:13.841Z,6.10
2023-02-24T08:49:19.958Z,6.10
2023-02-24T08:52:21.904Z,6.10
2023-02-24T08:55:30.339Z,6.20
2023-02-24T08:58:32.380Z,6.20
2023-02-24T09:02:03.705Z,6.30
2023-02-24T09:05:14.254Z,6.30
2023-02-24T09:08:16.286Z,6.20
2023-02-24T09:11:18.437Z,6.30
2023-02-24T09:14:27.309Z,6.40
2023-02-24T09:17:42.993Z,6.50
2023-02-24T09:20:56.551Z,6.50
2023-02-24T09:24:00.406Z,6.60
2023-02-24T09:27:04.389Z,6.60
2023-02-24T09:30:08.171Z,6.60
2023-02-24T09:33:18.201Z,6.60
2023-02-24T09:36:28.223Z,6.60
2023-02-24T09:40:04.201Z,6.60
2023-02-24T09:43:17.894Z,6.70
2023-02-24T09:46:19.904Z,6.70
2023-02-24T09:49:46.492Z,6.70
2023-02-24T09:53:00.078Z,6.80
2023-02-24T09:56:17.611Z,6.80
2023-02-24T09:59:35.002Z,6.90
2023-02-24T10:03:19.405Z,6.90
2023-02-24T10:06:28.815Z,7.00
2023-02-24T10:09:34.595Z,7.10
2023-02-24T10:12:40.248Z,7.10
2023-02-24T10:15:57.823Z,7.10
2023-02-24T10:19:16.597Z,7.10
2023-02-24T10:22:28.912Z,7.10
2023-02-24T10:26:06.719Z,7.20
2023-02-24T10:29:35.376Z,7.20
2023-02-24T10:32:48.233Z,7.20
2023-02-24T10:35:50.346Z,7.20
2023-02-24T10:38:55.993Z,7.20
2023-02-24T10:42:17.605Z,7.20
2023-02-24T10:45:34.793Z,7.10
2023-02-24T10:48:41.660Z,7.10
2023-02-24T10:51:51.201Z,7.00
2023-02-24T10:55:05.326Z,7.00
2023-02-24T10:58:15.982Z,7.00
2023-02-24T11:01:40.648Z,7.00
2023-02-24T11:05:03.986Z,7.00
2023-02-24T11:08:38.149Z,6.90
2023-02-24T11:11:58.874Z,7.00
2023-02-24T11:15:39.220Z,6.90
2023-02-24T11:18:49.972Z,7.00
2023-02-24T11:21:54.411Z,6.90
2023-02-24T11:24:56.560Z,6.90
2023-02-24T11:27:58.506Z,6.90
2023-02-24T11:31:13.728Z,6.80
2023-02-24T11:34:25.182Z,6.80
2023-02-24T11:37:43.614Z,6.80
2023-02-24T11:40:51.819Z,6.70
2023-02-24T11:44:20.667Z,6.80
2023-02-24T11:47:31.474Z,6.80
2023-02-24T11:51:03.237Z,6.80
2023-02-24T11:54:18.249Z,6.80
2023-02-24T11:57:32.523Z,6.80
2023-02-24T12:00:37.448Z,6.80
2023-02-24T12:04:01.194Z,6.80
2023-02-24T12:07:20.757Z,6.90
2023-02-24T12:10:54.384Z,6.90
2023-02-24T12:14:20.337Z,6.90
2023-02-24T12:17:34.740Z,7.00
2023-02-24T12:20:43.049Z,7.00
2023-02-24T12:23:46.821Z,7.00
2023-02-24T12:26:48.598Z,6.90
2023-02-24T12:30:22.944Z,6.80
2023-02-24T12:33:43.965Z,6.90
2023-02-24T12:36:45.689Z,6.80
2023-02-24T12:40:04.911Z,6.90
2023-02-24T12:43:25.410Z,6.90
2023-02-24T12:46:38.485Z,6.90
2023-02-24T12:49:59.543Z,6.90
2023-02-24T12:53:45.673Z,7.00
2023-02-24T12:57:12.257Z,7.00
2023-02-24T13:00:35.692Z,7.00
2023-02-24T13:03:58.187Z,7.10
2023-02-24T13:07:28.841Z,7.10
2023-02-24T13:10:50.832Z,7.10
2023-02-24T13:13:57.936Z,7.10
2023-02-24T13:17:10.238Z,7.10
2023-02-24T13:20:14.389Z,7.10
2023-02-24T13:23:21.415Z,7.10
2023-02-24T13:26:28.037Z,7.10
2023-02-24T13:29:30.085Z,7.10
2023-02-24T13:32:46.186Z,7.20
2023-02-24T13:35:53.512Z,7.10
2023-02-24T13:39:06.822Z,7.10
2023-02-24T13:42:26.005Z,7.10
2023-02-24T13:45:58.415Z,7.10
2023-02-24T13:49:13.492Z,7.10
2023-02-24T13:52:34.478Z,7.10
2023-02-24T13:55:37.338Z,7.10
2023-02-24T13:59:08.527Z,7.10
2023-02-24T14:02:13.374Z,7.10
2023-02-24T14:05:28.073Z,7.10
2023-02-24T14:08:43.934Z,7.20
2023-02-24T14:11:45.740Z,7.20
2023-02-24T14:14:49.239Z,7.10
2023-02-24T14:17:58.130Z,7.20
2023-02-24T14:21:00.298Z,7.10
2023-02-24T14:24:12.380Z,7.10
2023-02-24T14:27:26.620Z,7.10
2023-02-24T14:30:41.799Z,7.10
2023-02-24T14:33:45.520Z,7.10
2023-02-24T14:36:49.191Z,7.10
2023-02-24T14:39:56.464Z,7.10
2023-02-24T14:42:58.350Z,7.00
2023-02-24T14:46:05.609Z,7.00
2023-02-24T14:49:19.318Z,7.00
2023-02-24T14:52:41.252Z,7.00
2023-02-24T14:55:50.057Z,6.90
2023-02-24T14:58:57.499Z,7.00
2023-02-24T15:02:00.296Z,7.00
2023-02-24T15:05:02.306Z,7.00
2023-02-24T15:08:04.193Z,7.00
2023-02-24T15:11:29.456Z,7.00
2023-02-24T15:14:32.384Z,7.00
2023-02-24T15:17:40.432Z,7.10
2023-02-24T15:20:43.102Z,7.10
2023-02-24T15:23:45.870Z,7.00
2023-02-24T15:27:26.970Z,7.00
2023-02-24T15:30:38.138Z,7.00
2023-02-24T15:33:42.790Z,7.00
2023-02-24T15:36:44.724Z,6.90
2023-02-24T15:39:49.207Z,6.90
2023-02-24T15:43:17.229Z,6.90
2023-02-24T15:46:19.719Z,6.90
2023-02-24T15:49:21.690Z,6.90
2023-02-24T15:52:26.985Z,6.80
2023-02-24T15:55:30.147Z,6.80
2023-02-24T15:58:33.102Z,6.80
2023-02-24T16:01:35.154Z,6.80
2023-02-24T16:04:36.950Z,6.80
2023-02-24T16:07:39.703Z,6.90
2023-02-24T16:10:41.579Z,6.80
2023-02-24T16:13:49.535Z,6.90
2023-02-24T16:16:51.545Z,6.90
2023-02-24T16:19:55.464Z,6.90
2023-02-24T16:22:59.929Z,6.90
2023-02-24T16:26:01.708Z,6.90
2023-02-24T16:29:03.775Z,6.90
2023-02-24T16:32:05.788Z,6.90
2023-02-24T16:35:10.973Z,6.90
2023-02-24T16:38:18.188Z,6.90
2023-02-24T16:41:20.098Z,6.80
2023-02-24T16:44:23.367Z,6.80
2023-02-24T16:47:25.749Z,6.80
2023-02-24T16:50:33.472Z,6.90
2023-02-24T16:53:35.697Z,6.90
2023-02-24T16:56:38.173Z,6.90
2023-02-24T16:59:39.961Z,6.90
2023-02-24T17:02:43.993Z,6.80
2023-02-24T17:05:45.859Z,6.80
2023-02-24T17:08:47.948Z,6.80
2023-02-24T17:11:49.934Z,6.90
2023-02-24T17:14:51.739Z,6.90
2023-02-24T17:17:53.678Z,6.90
2023-02-24T17:20:55.631Z,6.90
2023-02-24T17:23:57.644Z,6.90
2023-02-24T17:27:00.500Z,6.90
2023-02-24T17:30:02.586Z,6.90
2023-02-24T17:33:04.842Z,6.90
2023-02-24T17:36:06.846Z,6.90
2023-02-24T17:39:08.674Z,6.90
2023-02-24T17:42:10.445Z,6.90
2023-02-24T17:45:13.682Z,7.00
2023-02-24T17:48:16.109Z,7.00
2023-02-24T17:51:19.814Z,7.00
2023-02-24T17:54:21.682Z,6.90
2023-02-24T17:57:23.459Z,6.90
2023-02-24T18:00:25.760Z,6.90
2023-02-24T18:03:30.562Z,6.90
2023-02-24T18:06:32.730Z,6.80
2023-02-24T18:09:34.669Z,6.80
2023-02-24T18:12:36.773Z,6.80
2023-02-24T18:15:39.289Z,6.70
2023-02-24T18:18:41.778Z,6.70
2023-02-24T18:21:43.785Z,6.80
2023-02-24T18:24:45.536Z,6.70
2023-02-24T18:27:47.527Z,6.70
2023-02-24T18:30:49.748Z,6.80
2023-02-24T18:33:51.753Z,6.70
2023-02-24T18:36:53.908Z,6.70
2023-02-24T18:39:55.766Z,6.70
2023-02-24T18:42:57.685Z,6.70
2023-02-24T18:46:02.138Z,6.70
2023-02-24T18:49:04.881Z,6.70
2023-02-24T18:52:07.455Z,6.70
2023-02-24T18:55:10.350Z,6.70
2023-02-24T18:58:13.718Z,6.70
2023-02-24T19:01:17.207Z,6.70
2023-02-24T19:04:18.986Z,6.70
2023-02-24T19:07:21.591Z,6.70
2023-02-24T19:10:23.521Z,6.70
2023-02-24T19:13:25.335Z,6.70
2023-02-24T19:16:27.634Z,6.70
2023-02-24T19:19:29.724Z,6.60
2023-02-24T19:22:32.935Z,6.60
2023-02-24T19:25:35.203Z,6.60
2023-02-24T19:28:37.082Z,6.60
2023-02-24T19:31:40.056Z,6.70
2023-02-24T19:34:42.866Z,6.70
2023-02-24T19:37:48.409Z,6.60
2023-02-24T19:40:50.384Z,6.60
2023-02-24T19:43:52.866Z,6.60
2023-02-24T19:46:54.838Z,6.60
2023-02-24T19:49:56.849Z,6.60
2023-02-24T19:52:58.824Z,6.60
2023-02-24T19:56:01.528Z,6.60
2023-02-24T19:59:05.643Z,6.70
2023-02-24T20:02:07.749Z,6.70
2023-02-24T20:05:10.464Z,6.70
2023-02-24T20:08:12.338Z,6.70
2023-02-24T20:11:14.388Z,6.70
2023-02-24T20:14:18.052Z,6.70
2023-02-24T20:17:20.022Z,6.70
2023-02-24T20:20:22.006Z,6.60
2023-02-24T20:23:23.997Z,6.60
2023-02-24T20:26:25.785Z,6.60
2023-02-24T20:29:29.365Z,6.50
2023-02-24T20:32:31.283Z,6.50
2023-02-24T20:35:33.162Z,6.60
2023-02-24T20:38:35.110Z,6.50
2023-02-24T20:41:37.103Z,6.50
2023-02-24T20:44:39.103Z,6.50
2023-02-24T20:47:40.952Z,6.50
2023-02-24T20:50:42.744Z,6.50
2023-02-24T20:53:56.784Z,6.60
2023-02-24T20:56:59.741Z,6.60
2023-02-24T21:00:07.987Z,6.50
2023-02-24T21:03:12.309Z,6.60
2023-02-24T21:06:16.290Z,6.60
2023-02-24T21:09:18.138Z,6.60
2023-02-24T21:12:19.985Z,6.50
2023-02-24T21:15:21.875Z,6.50
2023-02-24T21:18:23.727Z,6.40
2023-02-24T21:21:25.935Z,6.30
2023-02-24T21:24:27.794Z,6.30
2023-02-24T21:27:29.625Z,6.30
2023-02-24T21:30:31.804Z,6.30
2023-02-24T21:33:33.756Z,6.30
2023-02-24T21:36:35.542Z,6.30
2023-02-24T21:39:37.366Z,6.20
2023-02-24T21:42:44.450Z,6.30
2023-02-24T21:45:47.746Z,6.30
2023-02-24T21:48:57.875Z,6.20
2023-02-24T21:51:59.982Z,6.20
2023-02-24T21:55:02.632Z,6.20
2023-02-24T21:58:04.606Z,6.20
2023-02-24T22:01:11.799Z,6.20
2023-02-24T22:04:16.888Z,6.10
2023-02-24T22:07:18.748Z,6.10
2023-02-24T22:10:23.742Z,6.00
2023-02-24T22:13:26.115Z,6.00
2023-02-24T22:16:28.734Z,6.00
2023-02-24T22:19:30.791Z,6.00
2023-02-24T22:22:35.683Z,5.90
2023-02-24T22:25:37.474Z,5.80
2023-02-24T22:28:41.214Z,5.80
2023-02-24T22:31:47.579Z,5.70
2023-02-24T22:34:51.018Z,5.70
2023-02-24T22:37:53.684Z,5.70
2023-02-24T22:41:04.178Z,5.60
2023-02-24T22:44:06.560Z,5.70
2023-02-24T22:47:08.522Z,5.60
2023-02-24T22:50:11.251Z,5.60
2023-02-24T22:53:13.228Z,5.50
2023-02-24T22:56:21.450Z,5.60
2023-02-24T22:59:23.500Z,5.50
2023-02-24T23:02:25.556Z,5.50
2023-02-24T23:05:27.352Z,5.50
2023-02-24T23:08:31.098Z,5.40
2023-02-24T23:11:41.389Z,5.40
2023-02-24T23:14:48.783Z,5.40
2023-02-24T23:17:50.745Z,5.40
2023-02-24T23:20:59.555Z,5.30
2023-02-24T23:24:02.113Z,5.20
2023-02-24T23:27:04.438Z,5.20
2023-02-24T23:30:08.864Z,5.20
2023-02-24T23:33:11.197Z,5.20
2023-02-24T23:36:13.267Z,5.20
2023-02-24T23:39:17.357Z,5.20
2023-02-24T23:42:19.736Z,5.20
2023-02-24T23:45:21.578Z,5.20
2023-02-24T23:48:24.288Z,5.20
2023-02-24T23:51:27.988Z,5.30
2023-02-24T23:54:33.084Z,5.20
2023-02-24T23:57:35.413Z,5.30
